createdAt,value
2023-04-18T00:01:59.055Z,16.89
2023-04-18T00:04:26.908Z,16.90
2023-04-18T00:06:54.488Z,17.11
2023-04-18T00:09:22.074Z,17.56
2023-04-18T00:11:49.579Z,17.82
2023-04-18T00:14:17.412Z,17.29
2023-04-18T00:16:44.955Z,18.08
2023-04-18T00:19:14.336Z,16.79
2023-04-18T00:21:42.031Z,16.97
2023-04-18T00:24:12.502Z,16.67
2023-04-18T00:26:40.558Z,17.76
2023-04-18T00:29:09.013Z,17.45
2023-04-18T00:31:37.384Z,17.62
2023-04-18T00:34:04.861Z,17.28
2023-04-18T00:36:33.789Z,17.43
2023-04-18T00:39:01.391Z,17.92
2023-04-18T00:41:30.520Z,17.92
2023-04-18T00:43:58.411Z,17.17
2023-04-18T00:46:25.964Z,17.43
2023-04-18T00:48:53.540Z,16.93
2023-04-18T00:51:21.319Z,16.75
2023-04-18T00:53:50.737Z,17.50
2023-04-18T00:56:18.420Z,17.26
2023-04-18T00:58:46.089Z,17.11
2023-04-18T01:01:14.251Z,17.11
2023-04-18T01:03:41.911Z,17.82
2023-04-18T01:06:09.784Z,18.03
2023-04-18T01:08:38.301Z,17.91
2023-04-18T01:11:07.345Z,17.19
2023-04-18T01:13:35.281Z,18.21
2023-04-18T01:16:04.664Z,17.81
2023-04-18T01:18:32.215Z,17.70
2023-04-18T01:20:59.969Z,17.46
2023-04-18T01:23:27.464Z,18.11
2023-04-18T01:25:56.533Z,18.12
2023-04-18T01:28:26.290Z,17.49
2023-04-18T01:30:56.368Z,18.02
2023-04-18T01:33:24.330Z,18.31
2023-04-18T01:35:51.756Z,18.62
2023-04-18T01:38:19.232Z,17.86
2023-04-18T01:40:47.415Z,17.58
2023-04-18T01:43:17.204Z,17.35
2023-04-18T01:45:44.675Z,18.37
2023-04-18T01:48:12.207Z,18.36
2023-04-18T01:50:42.934Z,18.08
2023-04-18T01:53:11.324Z,18.38
2023-04-18T01:55:38.852Z,18.27
2023-04-18T01:58:06.961Z,18.58
2023-04-18T02:00:36.021Z,18.08
2023-04-18T02:03:03.730Z,17.57
2023-04-18T02:05:31.275Z,17.68
2023-04-18T02:08:00.095Z,17.16
2023-04-18T02:10:27.688Z,17.11
2023-04-18T02:12:55.134Z,18.52
2023-04-18T02:15:24.520Z,16.99
2023-04-18T02:17:53.573Z,17.07
2023-04-18T02:20:23.943Z,16.82
2023-04-18T02:22:51.395Z,16.63
2023-04-18T02:25:19.043Z,16.40
2023-04-18T02:27:48.141Z,16.67
2023-04-18T02:30:16.017Z,17.31
2023-04-18T02:32:43.507Z,17.01
2023-04-18T02:35:12.487Z,16.53
2023-04-18T02:37:40.470Z,16.99
2023-04-18T02:40:09.568Z,17.04
2023-04-18T02:42:37.336Z,17.31
2023-04-18T02:45:05.803Z,17.56
2023-04-18T02:47:40.524Z,17.22
2023-04-18T02:50:12.998Z,17.00
2023-04-18T02:52:40.839Z,16.84
2023-04-18T02:55:09.904Z,17.02
2023-04-18T02:57:40.787Z,18.15
2023-04-18T03:00:37.487Z,17.21
2023-04-18T03:03:30.178Z,18.28
2023-04-18T03:06:16.136Z,17.57
2023-04-18T03:08:43.740Z,16.79
2023-04-18T03:11:11.269Z,17.36
2023-04-18T03:13:38.891Z,18.28
2023-04-18T03:16:07.198Z,18.93
2023-04-18T03:18:35.075Z,18.25
2023-04-18T03:21:03.180Z,17.63
2023-04-18T03:23:34.226Z,18.53
2023-04-18T03:26:05.543Z,18.35
2023-04-18T03:28:35.150Z,18.92
2023-04-18T03:31:02.962Z,18.79
2023-04-18T03:33:33.042Z,19.20
2023-04-18T03:36:08.539Z,18.46
2023-04-18T03:38:38.663Z,18.79
2023-04-18T03:41:06.876Z,18.55
2023-04-18T03:43:37.069Z,19.01
2023-04-18T03:46:05.492Z,19.03
2023-04-18T03:48:33.704Z,18.53
2023-04-18T03:51:02.744Z,18.85
2023-04-18T03:53:31.920Z,18.03
2023-04-18T03:56:01.504Z,18.56
2023-04-18T03:58:43.438Z,17.61
2023-04-18T04:01:11.110Z,18.84
2023-04-18T04:03:39.171Z,19.12
2023-04-18T04:06:07.070Z,19.33
2023-04-18T04:08:34.695Z,19.05
2023-04-18T04:11:04.691Z,19.39
2023-04-18T04:13:32.178Z,19.13
2023-04-18T04:16:00.240Z,18.55
2023-04-18T04:18:27.917Z,18.50
2023-04-18T04:20:56.272Z,19.16
2023-04-18T04:23:34.262Z,18.84
2023-04-18T04:26:02.407Z,18.69
2023-04-18T04:28:49.927Z,17.86
2023-04-18T04:31:21.375Z,19.69
2023-04-18T04:33:50.386Z,19.15
2023-04-18T04:36:20.362Z,18.96
2023-04-18T04:38:49.789Z,18.95
2023-04-18T04:41:19.050Z,17.78
2023-04-18T04:43:46.610Z,18.53
2023-04-18T04:46:19.930Z,19.04
2023-04-18T04:48:50.148Z,18.80
2023-04-18T04:51:19.331Z,17.96
2023-04-18T04:53:47.114Z,17.79
2023-04-18T04:56:14.958Z,17.63
2023-04-18T04:58:43.037Z,17.14
2023-04-18T05:01:17.239Z,17.52
2023-04-18T05:03:45.331Z,18.33
2023-04-18T05:06:13.116Z,18.74
2023-04-18T05:08:40.592Z,18.84
2023-04-18T05:11:08.085Z,17.67
2023-04-18T05:13:35.569Z,17.17
2023-04-18T05:16:03.265Z,17.03
2023-04-18T05:18:34.930Z,16.94
2023-04-18T05:21:02.845Z,17.30
2023-04-18T05:23:30.527Z,17.05
2023-04-18T05:25:58.141Z,17.00
2023-04-18T05:28:26.467Z,19.84
2023-04-18T05:30:54.015Z,18.74
2023-04-18T05:33:21.706Z,18.39
2023-04-18T05:35:50.770Z,17.39
2023-04-18T05:38:18.245Z,17.19
2023-04-18T05:40:45.803Z,17.30
2023-04-18T05:43:13.454Z,17.55
2023-04-18T05:45:41.243Z,17.46
2023-04-18T05:48:08.768Z,18.03
2023-04-18T05:50:36.237Z,18.11
2023-04-18T05:53:05.359Z,19.18
2023-04-18T05:55:33.021Z,17.39
2023-04-18T05:58:00.568Z,17.24
2023-04-18T06:00:28.143Z,18.56
2023-04-18T06:02:55.883Z,18.79
2023-04-18T06:05:23.948Z,18.76
2023-04-18T06:07:51.744Z,19.28
2023-04-18T06:10:20.798Z,18.97
2023-04-18T06:12:48.251Z,17.46
2023-04-18T06:15:15.719Z,19.22
2023-04-18T06:17:43.945Z,19.30
2023-04-18T06:20:12.492Z,19.59
2023-04-18T06:22:40.013Z,18.99
2023-04-18T06:25:08.119Z,18.93
2023-04-18T06:27:37.089Z,18.99
2023-04-18T06:30:06.649Z,18.15
2023-04-18T06:32:34.333Z,18.41
2023-04-18T06:35:01.888Z,18.60
2023-04-18T06:37:29.646Z,18.46
2023-04-18T06:39:57.128Z,19.09
2023-04-18T06:42:24.738Z,19.33
2023-04-18T06:44:56.294Z,19.56
2023-04-18T06:47:23.893Z,18.49
2023-04-18T06:49:51.552Z,17.80
2023-04-18T06:52:19.118Z,17.74
2023-04-18T06:54:46.818Z,17.75
2023-04-18T06:57:14.409Z,18.40
2023-04-18T06:59:41.874Z,17.18
2023-04-18T07:02:11.631Z,18.69
2023-04-18T07:04:39.143Z,16.95
2023-04-18T07:07:06.841Z,17.92
2023-04-18T07:09:34.409Z,17.92
2023-04-18T07:12:01.929Z,18.80
2023-04-18T07:14:29.492Z,17.85
2023-04-18T07:16:57.024Z,17.80
2023-04-18T07:19:26.017Z,17.79
2023-04-18T07:21:53.512Z,17.87
2023-04-18T07:24:20.963Z,19.85
2023-04-18T07:26:48.530Z,19.34
2023-04-18T07:29:16.059Z,19.69
2023-04-18T07:31:43.642Z,19.62
2023-04-18T07:34:11.301Z,19.31
2023-04-18T07:36:41.200Z,19.33
2023-04-18T07:39:08.783Z,17.96
2023-04-18T07:41:36.396Z,19.25
2023-04-18T07:44:04.780Z,19.31
2023-04-18T07:46:32.814Z,19.36
2023-04-18T07:49:00.562Z,19.09
2023-04-18T07:51:28.503Z,19.16
2023-04-18T07:53:57.534Z,18.71
2023-04-18T07:56:25.200Z,17.72
2023-04-18T07:58:53.375Z,18.03
2023-04-18T08:01:21.104Z,18.37
2023-04-18T08:03:48.738Z,18.45
2023-04-18T08:06:16.946Z,19.18
2023-04-18T08:08:44.704Z,19.14
2023-04-18T08:11:13.896Z,19.17
2023-04-18T08:13:41.378Z,19.06
2023-04-18T08:16:09.393Z,18.94
2023-04-18T08:18:36.928Z,19.33
2023-04-18T08:21:05.046Z,19.04
2023-04-18T08:23:32.703Z,18.99
2023-04-18T08:26:00.308Z,17.92
2023-04-18T08:28:29.356Z,18.90
2023-04-18T08:30:57.010Z,18.03
2023-04-18T08:33:24.743Z,17.47
2023-04-18T08:35:52.324Z,17.78
2023-04-18T08:38:20.119Z,18.49
2023-04-18T08:40:48.135Z,17.73
2023-04-18T08:43:15.769Z,18.08
2023-04-18T08:45:45.363Z,17.61
2023-04-18T08:48:13.437Z,17.48
2023-04-18T08:50:41.478Z,17.88
2023-04-18T08:53:09.507Z,17.72
2023-04-18T08:55:37.371Z,18.23
2023-04-18T08:58:04.966Z,17.31
2023-04-18T09:00:32.872Z,17.56
2023-04-18T09:03:01.956Z,17.63
2023-04-18T09:05:29.587Z,18.91
2023-04-18T09:07:57.117Z,18.06
2023-04-18T09:10:29.398Z,17.22
2023-04-18T09:12:58.016Z,18.40
2023-04-18T09:15:27.508Z,18.89
2023-04-18T09:17:56.582Z,18.05
2023-04-18T09:20:30.845Z,18.14
2023-04-18T09:22:58.394Z,16.87
2023-04-18T09:25:27.906Z,17.83
2023-04-18T09:27:56.082Z,17.05
2023-04-18T09:30:36.843Z,17.92
2023-04-18T09:33:06.603Z,17.42
2023-04-18T09:35:35.458Z,18.12
2023-04-18T09:38:03.688Z,17.44
2023-04-18T09:40:31.542Z,16.25
2023-04-18T09:42:59.165Z,16.75
2023-04-18T09:45:27.461Z,17.17
2023-04-18T09:47:55.697Z,17.49
2023-04-18T09:50:23.462Z,17.50
2023-04-18T09:52:53.480Z,17.66
2023-04-18T09:55:21.511Z,16.38
2023-04-18T09:57:49.190Z,15.93
2023-04-18T10:00:22.444Z,17.25
2023-04-18T10:02:57.499Z,17.52
2023-04-18T10:05:27.046Z,17.96
2023-04-18T10:07:57.128Z,18.81
2023-04-18T10:10:25.399Z,18.54
2023-04-18T10:12:54.870Z,17.79
2023-04-18T10:15:24.893Z,17.82
2023-04-18T10:18:03.513Z,19.55
2023-04-18T10:20:33.981Z,19.78
2023-04-18T10:23:35.146Z,19.40
2023-04-18T10:26:03.432Z,18.96
2023-04-18T10:28:52.346Z,18.41
2023-04-18T10:31:20.938Z,17.39
2023-04-18T10:34:00.747Z,18.14
2023-04-18T10:36:33.007Z,18.79
2023-04-18T10:39:20.245Z,17.99
2023-04-18T10:41:50.958Z,17.32
2023-04-18T10:44:22.123Z,18.35
2023-04-18T10:47:32.064Z,18.87
2023-04-18T10:50:06.031Z,18.56
2023-04-18T10:52:34.242Z,17.63
2023-04-18T10:55:13.690Z,17.38
2023-04-18T10:57:42.679Z,17.14
2023-04-18T11:00:12.872Z,18.25
2023-04-18T11:02:41.554Z,18.65
2023-04-18T11:05:10.172Z,16.84
2023-04-18T11:07:40.427Z,17.05
2023-04-18T11:10:10.888Z,17.17
2023-04-18T11:12:39.957Z,16.86
2023-04-18T11:15:11.817Z,17.15
2023-04-18T11:17:40.346Z,17.08
2023-04-18T11:20:10.133Z,17.02
2023-04-18T11:22:47.477Z,16.34
2023-04-18T11:25:18.634Z,16.48
2023-04-18T11:27:48.420Z,17.24
2023-04-18T11:30:16.245Z,17.30
2023-04-18T11:32:44.386Z,16.58
2023-04-18T11:35:13.041Z,18.29
2023-04-18T11:37:41.394Z,17.31
2023-04-18T11:40:10.328Z,16.59
2023-04-18T11:42:40.929Z,16.33
2023-04-18T11:45:12.554Z,17.44
2023-04-18T11:47:41.412Z,16.83
2023-04-18T11:50:10.343Z,16.76
2023-04-18T11:52:38.135Z,18.21
2023-04-18T11:55:13.885Z,18.31
2023-04-18T11:57:43.409Z,16.48
2023-04-18T12:00:11.929Z,16.71
2023-04-18T12:02:41.763Z,17.36
2023-04-18T12:05:10.340Z,17.12
2023-04-18T12:07:39.110Z,17.05
2023-04-18T12:10:08.487Z,18.03
2023-04-18T12:12:36.681Z,17.91
2023-04-18T12:15:14.210Z,16.84
2023-04-18T12:17:44.012Z,17.64
2023-04-18T12:20:12.809Z,18.18
2023-04-18T12:22:45.217Z,18.30
2023-04-18T12:25:18.039Z,17.89
2023-04-18T12:27:53.744Z,17.99
2023-04-18T12:30:23.668Z,17.35
2023-04-18T12:32:53.428Z,17.21
2023-04-18T12:35:21.507Z,16.66
2023-04-18T12:37:50.310Z,17.84
2023-04-18T12:40:18.426Z,17.13
2023-04-18T12:42:47.209Z,16.66
2023-04-18T12:45:15.789Z,16.85
2023-04-18T12:47:46.070Z,16.62
2023-04-18T12:50:16.787Z,16.52
2023-04-18T12:52:44.516Z,16.51
2023-04-18T12:55:13.433Z,16.79
2023-04-18T12:57:42.078Z,16.24
2023-04-18T13:00:11.279Z,16.63
2023-04-18T13:02:41.142Z,16.52
2023-04-18T13:05:11.812Z,16.78
2023-04-18T13:07:40.234Z,16.93
2023-04-18T13:10:08.966Z,16.84
2023-04-18T13:12:36.574Z,16.41
2023-04-18T13:15:04.330Z,16.46
2023-04-18T13:17:32.319Z,16.07
2023-04-18T13:19:59.994Z,16.27
2023-04-18T13:22:29.075Z,16.19
2023-04-18T13:24:56.655Z,16.22
2023-04-18T13:27:24.326Z,15.74
2023-04-18T13:29:52.060Z,16.10
2023-04-18T13:32:20.286Z,15.92
2023-04-18T13:34:48.443Z,16.40
2023-04-18T13:37:16.040Z,16.04
2023-04-18T13:39:45.097Z,17.11
2023-04-18T13:42:14.070Z,16.19
2023-04-18T13:44:45.139Z,16.64
2023-04-18T13:47:12.662Z,16.25
2023-04-18T13:49:40.371Z,16.89
2023-04-18T13:52:08.027Z,16.75
2023-04-18T13:54:36.704Z,17.25
2023-04-18T13:57:05.931Z,17.15
2023-04-18T13:59:33.551Z,16.45
2023-04-18T14:02:01.166Z,16.39
2023-04-18T14:04:29.072Z,16.35
2023-04-18T14:06:56.928Z,15.92
2023-04-18T14:09:25.011Z,16.26
2023-04-18T14:11:52.904Z,15.83
2023-04-18T14:14:23.355Z,16.14
2023-04-18T14:16:51.172Z,15.69
2023-04-18T14:19:18.802Z,15.62
2023-04-18T14:21:47.351Z,16.05
2023-04-18T14:24:15.096Z,15.98
2023-04-18T14:26:42.718Z,15.98
2023-04-18T14:29:10.492Z,15.73
2023-04-18T14:31:39.466Z,15.89
2023-04-18T14:34:07.008Z,15.92
2023-04-18T14:36:34.976Z,15.88
2023-04-18T14:39:02.505Z,15.90
2023-04-18T14:41:29.985Z,15.58
2023-04-18T14:43:57.486Z,15.92
2023-04-18T14:46:25.239Z,15.96
2023-04-18T14:48:54.880Z,16.04
2023-04-18T14:51:23.162Z,15.84
2023-04-18T14:53:50.731Z,15.60
2023-04-18T14:56:18.843Z,15.64
2023-04-18T14:58:46.357Z,15.73
2023-04-18T15:01:14.008Z,15.83
2023-04-18T15:03:41.906Z,15.81
2023-04-18T15:06:11.964Z,16.78
2023-04-18T15:08:39.713Z,16.45
2023-04-18T15:11:07.875Z,16.35
2023-04-18T15:13:36.217Z,16.27
2023-04-18T15:16:04.272Z,16.10
2023-04-18T15:18:31.794Z,15.78
2023-04-18T15:21:00.430Z,15.70
2023-04-18T15:23:29.634Z,15.75
2023-04-18T15:25:57.224Z,15.62
2023-04-18T15:28:26.006Z,15.78
2023-04-18T15:30:53.478Z,15.67
2023-04-18T15:33:21.195Z,15.71
2023-04-18T15:35:49.450Z,16.99
2023-04-18T15:38:17.280Z,15.97
2023-04-18T15:40:46.462Z,15.73
2023-04-18T15:43:14.295Z,15.92
2023-04-18T15:45:41.870Z,15.75
2023-04-18T15:48:09.494Z,15.91
2023-04-18T15:50:37.053Z,16.00
2023-04-18T15:53:04.738Z,16.09
2023-04-18T15:55:32.325Z,15.90
2023-04-18T15:58:01.380Z,15.96
2023-04-18T16:00:29.891Z,15.89
2023-04-18T16:02:57.578Z,15.70
2023-04-18T16:05:25.412Z,15.64
2023-04-18T16:07:53.107Z,15.77
2023-04-18T16:10:21.057Z,16.03
2023-04-18T16:12:49.078Z,15.66
2023-04-18T16:15:19.474Z,15.40
2023-04-18T16:17:48.097Z,15.79
2023-04-18T16:20:17.402Z,16.17
2023-04-18T16:22:47.525Z,15.96
2023-04-18T16:25:15.692Z,16.21
2023-04-18T16:27:44.829Z,15.94
2023-04-18T16:30:13.661Z,15.58
2023-04-18T16:32:42.682Z,15.95
2023-04-18T16:35:10.944Z,15.75
2023-04-18T16:37:40.085Z,15.90
2023-04-18T16:40:08.874Z,15.46
2023-04-18T16:42:37.003Z,15.58
2023-04-18T16:45:05.995Z,15.62
2023-04-18T16:47:34.553Z,15.75
2023-04-18T16:50:03.623Z,15.99
2023-04-18T16:52:31.132Z,15.44
2023-04-18T16:54:58.870Z,15.38
2023-04-18T16:57:26.700Z,15.17
2023-04-18T16:59:55.241Z,15.55
2023-04-18T17:02:23.435Z,15.33
2023-04-18T17:04:51.072Z,15.56
2023-04-18T17:07:20.181Z,15.54
2023-04-18T17:09:47.639Z,15.32
2023-04-18T17:12:15.163Z,15.28
2023-04-18T17:14:42.649Z,15.77
2023-04-18T17:17:10.178Z,15.16
2023-04-18T17:19:37.853Z,15.22
2023-04-18T17:22:05.325Z,15.34
2023-04-18T17:24:34.343Z,15.04
2023-04-18T17:27:02.338Z,15.36
2023-04-18T17:29:30.298Z,15.32
2023-04-18T17:31:58.045Z,15.16
2023-04-18T17:34:26.310Z,15.30
2023-04-18T17:36:53.883Z,15.21
2023-04-18T17:39:21.887Z,15.45
2023-04-18T17:41:51.557Z,15.34
2023-04-18T17:44:19.159Z,15.33
2023-04-18T17:46:47.720Z,15.11
2023-04-18T17:49:16.282Z,14.80
2023-04-18T17:51:44.573Z,15.13
2023-04-18T17:54:12.596Z,15.21
2023-04-18T17:56:40.721Z,15.47
2023-04-18T17:59:09.730Z,15.11
2023-04-18T18:01:37.820Z,15.25
2023-04-18T18:04:05.598Z,15.17
2023-04-18T18:06:33.333Z,15.20
2023-04-18T18:09:01.026Z,14.69
2023-04-18T18:11:28.516Z,15.16
2023-04-18T18:13:56.525Z,14.93
2023-04-18T18:16:25.548Z,15.44
2023-04-18T18:18:53.284Z,14.94
2023-04-18T18:21:20.840Z,15.11
2023-04-18T18:23:48.379Z,15.04
2023-04-18T18:26:16.036Z,14.94
2023-04-18T18:28:43.664Z,15.30
2023-04-18T18:31:11.254Z,14.98
2023-04-18T18:33:40.333Z,14.86
2023-04-18T18:36:07.975Z,14.95
2023-04-18T18:38:36.105Z,15.38
2023-04-18T18:41:03.956Z,15.44
2023-04-18T18:43:32.305Z,15.30
2023-04-18T18:45:59.925Z,15.08
2023-04-18T18:48:27.879Z,15.19
2023-04-18T18:50:56.855Z,14.61
2023-04-18T18:53:24.778Z,15.03
2023-04-18T18:55:52.368Z,15.00
2023-04-18T18:58:19.896Z,14.60
2023-04-18T19:00:47.514Z,14.59
2023-04-18T19:03:15.091Z,14.87
2023-04-18T19:05:42.579Z,14.65
2023-04-18T19:08:11.622Z,14.81
2023-04-18T19:10:39.351Z,14.95
2023-04-18T19:13:06.828Z,15.02
2023-04-18T19:15:34.545Z,14.54
2023-04-18T19:18:02.173Z,14.44
2023-04-18T19:20:29.674Z,14.38
2023-04-18T19:22:57.199Z,14.50
2023-04-18T19:25:26.251Z,14.38
2023-04-18T19:27:53.801Z,14.35
2023-04-18T19:30:21.372Z,14.38
2023-04-18T19:32:49.116Z,14.42
2023-04-18T19:35:16.690Z,14.60
2023-04-18T19:37:44.153Z,14.59
2023-04-18T19:40:12.326Z,14.25
2023-04-18T19:42:41.389Z,14.37
2023-04-18T19:45:09.793Z,14.44
2023-04-18T19:47:37.313Z,14.33
2023-04-18T19:50:06.009Z,14.21
2023-04-18T19:52:33.523Z,14.25
2023-04-18T19:55:01.046Z,14.18
2023-04-18T19:57:28.589Z,13.86
2023-04-18T19:59:57.682Z,13.88
2023-04-18T20:02:25.216Z,14.45
2023-04-18T20:04:52.944Z,15.53
2023-04-18T20:07:20.669Z,15.45
2023-04-18T20:09:48.113Z,14.46
2023-04-18T20:12:15.549Z,14.67
2023-04-18T20:14:43.018Z,14.97
2023-04-18T20:17:12.361Z,14.68
2023-04-18T20:19:39.906Z,16.15
2023-04-18T20:22:07.469Z,15.13
2023-04-18T20:24:35.454Z,14.69
2023-04-18T20:27:02.898Z,15.46
2023-04-18T20:29:30.401Z,15.97
2023-04-18T20:31:58.331Z,15.50
2023-04-18T20:34:27.205Z,15.52
2023-04-18T20:36:55.203Z,14.68
2023-04-18T20:39:22.789Z,15.93
2023-04-18T20:41:50.478Z,16.02
2023-04-18T20:44:18.756Z,16.27
2023-04-18T20:46:46.266Z,16.00
2023-04-18T20:49:14.033Z,15.95
2023-04-18T20:51:43.149Z,16.58
2023-04-18T20:54:10.726Z,15.43
2023-04-18T20:56:38.316Z,16.04
2023-04-18T20:59:05.916Z,16.45
2023-04-18T21:01:33.797Z,15.08
2023-04-18T21:04:02.761Z,15.41
2023-04-18T21:06:30.926Z,16.57
2023-04-18T21:08:59.993Z,16.33
2023-04-18T21:11:27.484Z,16.92
2023-04-18T21:13:54.900Z,15.54
2023-04-18T21:16:22.920Z,16.43
2023-04-18T21:18:50.871Z,15.31
2023-04-18T21:21:18.766Z,15.46
2023-04-18T21:23:46.360Z,15.21
2023-04-18T21:26:15.584Z,15.50
2023-04-18T21:28:53.291Z,14.98
2023-04-18T21:31:20.812Z,16.20
2023-04-18T21:33:51.458Z,15.80
2023-04-18T21:36:18.866Z,15.48
2023-04-18T21:38:46.336Z,15.79
2023-04-18T21:41:16.634Z,16.23
2023-04-18T21:43:44.326Z,16.94
2023-04-18T21:46:12.075Z,16.09
2023-04-18T21:48:40.215Z,16.17
2023-04-18T21:51:08.390Z,15.33
2023-04-18T21:53:36.064Z,16.60
2023-04-18T21:56:03.538Z,16.29
2023-04-18T21:58:32.449Z,16.10
2023-04-18T22:01:00.255Z,15.72
2023-04-18T22:03:28.616Z,15.97
2023-04-18T22:05:56.623Z,17.41
2023-04-18T22:08:24.274Z,16.56
2023-04-18T22:10:51.904Z,16.76
2023-04-18T22:13:19.407Z,16.28
2023-04-18T22:15:48.394Z,15.95
2023-04-18T22:18:16.188Z,17.22
2023-04-18T22:20:44.175Z,16.96
2023-04-18T22:23:11.648Z,16.97
2023-04-18T22:25:39.133Z,15.95
2023-04-18T22:28:06.669Z,16.48
2023-04-18T22:30:34.801Z,15.09
2023-04-18T22:33:04.074Z,15.24
2023-04-18T22:35:31.525Z,15.72
2023-04-18T22:37:58.954Z,16.42
2023-04-18T22:40:26.379Z,16.90
2023-04-18T22:42:53.871Z,14.91
2023-04-18T22:45:21.293Z,16.66
2023-04-18T22:47:48.997Z,17.32
2023-04-18T22:50:18.186Z,15.85
2023-04-18T22:52:45.627Z,16.77
2023-04-18T22:55:13.067Z,15.21
2023-04-18T22:57:40.896Z,16.61
2023-04-18T23:00:09.443Z,17.08
2023-04-18T23:02:37.222Z,16.79
2023-04-18T23:05:05.610Z,16.83
2023-04-18T23:07:34.773Z,17.33
2023-04-18T23:10:04.025Z,15.33
2023-04-18T23:12:31.495Z,17.12
2023-04-18T23:14:59.515Z,16.14
2023-04-18T23:17:27.177Z,16.89
2023-04-18T23:19:54.918Z,17.08
2023-04-18T23:22:22.388Z,15.75
2023-04-18T23:24:51.337Z,17.35
2023-04-18T23:27:19.698Z,16.45
2023-04-18T23:29:48.028Z,15.01
2023-04-18T23:32:15.478Z,16.65
2023-04-18T23:34:42.933Z,16.21
2023-04-18T23:37:10.405Z,16.88
2023-04-18T23:39:37.818Z,15.39
2023-04-18T23:42:07.461Z,16.89
2023-04-18T23:44:34.507Z,16.23
2023-04-18T23:47:02.303Z,17.45
2023-04-18T23:49:29.838Z,16.82
2023-04-18T23:51:57.343Z,17.05
2023-04-18T23:54:24.808Z,15.82
2023-04-18T23:56:52.556Z,17.20
2023-04-18T23:59:21.801Z,16.45
